createdAt,value
2022-11-14T00:01:26.007Z,42.00
2022-11-14T00:03:54.400Z,40.70
2022-11-14T00:06:22.357Z,40.50
2022-11-14T00:08:50.180Z,38.40
2022-11-14T00:11:18.038Z,39.60
2022-11-14T00:13:46.520Z,38.00
2022-11-14T00:16:14.389Z,39.20
2022-11-14T00:18:42.251Z,38.90
2022-11-14T00:21:10.137Z,39.60
2022-11-14T00:23:38.053Z,38.30
2022-11-14T00:26:06.014Z,38.80
2022-11-14T00:28:34.469Z,40.90
2022-11-14T00:31:02.297Z,38.70
2022-11-14T00:33:30.044Z,37.80
2022-11-14T00:35:57.925Z,39.60
2022-11-14T00:38:25.843Z,39.30
2022-11-14T00:40:53.742Z,37.80
2022-11-14T00:43:21.538Z,38.70
2022-11-14T00:45:49.358Z,39.50
2022-11-14T00:48:17.464Z,37.00
2022-11-14T00:50:45.394Z,40.20
2022-11-14T00:53:13.798Z,38.40
2022-11-14T00:55:42.846Z,37.70
2022-11-14T00:58:10.968Z,37.70
2022-11-14T01:00:39.217Z,40.60
2022-11-14T01:03:07.128Z,41.10
2022-11-14T01:05:43.570Z,39.30
2022-11-14T01:08:13.026Z,40.50
2022-11-14T01:10:47.629Z,40.80
2022-11-14T01:13:17.225Z,38.70
2022-11-14T01:15:47.956Z,36.30
2022-11-14T01:18:20.085Z,38.40
2022-11-14T01:20:49.010Z,40.30
2022-11-14T01:23:17.143Z,43.40
2022-11-14T01:25:45.504Z,38.90
2022-11-14T01:28:18.042Z,39.50
2022-11-14T01:30:46.167Z,38.50
2022-11-14T01:33:13.947Z,41.70
2022-11-14T01:35:41.910Z,41.00
2022-11-14T01:38:13.391Z,40.00
2022-11-14T01:40:43.783Z,41.20
2022-11-14T01:43:11.560Z,40.40
2022-11-14T01:45:57.800Z,41.10
2022-11-14T01:48:37.182Z,40.20
2022-11-14T01:51:38.373Z,43.90
2022-11-14T01:54:11.333Z,39.70
2022-11-14T01:56:44.377Z,43.00
2022-11-14T01:59:18.513Z,41.80
2022-11-14T02:01:50.311Z,40.40
2022-11-14T02:04:30.862Z,41.30
2022-11-14T02:07:01.861Z,42.70
2022-11-14T02:09:33.031Z,42.40
2022-11-14T02:12:02.975Z,42.30
2022-11-14T02:14:31.259Z,43.80
2022-11-14T02:17:22.727Z,42.10
2022-11-14T02:20:11.951Z,46.00
2022-11-14T02:22:42.308Z,40.70
2022-11-14T02:25:13.471Z,44.00
2022-11-14T02:27:41.697Z,43.80
2022-11-14T02:30:15.148Z,45.40
2022-11-14T02:33:10.583Z,46.50
2022-11-14T02:35:30.877Z,45.90
2022-11-14T02:37:58.796Z,44.70
2022-11-14T02:40:26.597Z,46.00
2022-11-14T02:42:54.635Z,47.30
2022-11-14T02:45:22.458Z,46.00
2022-11-14T02:47:50.294Z,42.00
2022-11-14T02:50:18.453Z,47.40
2022-11-14T02:52:46.366Z,44.90
2022-11-14T02:55:14.187Z,45.50
2022-11-14T02:57:41.960Z,45.70
2022-11-14T03:00:14.835Z,43.90
2022-11-14T03:02:43.199Z,46.80
2022-11-14T03:05:11.088Z,46.30
2022-11-14T03:07:38.972Z,48.40
2022-11-14T03:10:08.092Z,46.30
2022-11-14T03:12:35.848Z,54.20
2022-11-14T03:15:07.715Z,49.30
2022-11-14T03:17:35.637Z,47.10
2022-11-14T03:20:04.121Z,47.90
2022-11-14T03:22:31.902Z,48.60
2022-11-14T03:24:59.666Z,47.50
2022-11-14T03:27:27.507Z,46.30
2022-11-14T03:29:55.370Z,46.50
2022-11-14T03:32:23.303Z,45.00
2022-11-14T03:34:51.165Z,47.40
2022-11-14T03:37:19.063Z,46.50
2022-11-14T03:39:46.884Z,45.80
2022-11-14T03:42:14.816Z,45.80
2022-11-14T03:44:42.577Z,43.80
2022-11-14T03:47:10.560Z,45.40
2022-11-14T03:49:38.362Z,46.00
2022-11-14T03:52:06.221Z,44.20
2022-11-14T03:54:34.040Z,44.20
2022-11-14T03:57:01.835Z,43.40
2022-11-14T03:59:29.786Z,46.10
2022-11-14T04:01:57.624Z,43.50
2022-11-14T04:04:25.643Z,43.30
2022-11-14T04:06:53.511Z,43.30
2022-11-14T04:09:21.411Z,47.60
2022-11-14T04:11:49.191Z,46.20
2022-11-14T04:14:16.995Z,44.80
2022-11-14T04:16:44.749Z,45.60
2022-11-14T04:19:12.547Z,46.60
2022-11-14T04:21:40.405Z,43.40
2022-11-14T04:24:11.020Z,44.20
2022-11-14T04:26:39.219Z,44.40
2022-11-14T04:29:07.089Z,44.00
2022-11-14T04:31:34.901Z,47.70
2022-11-14T04:34:02.737Z,42.70
2022-11-14T04:36:30.558Z,43.10
2022-11-14T04:38:58.343Z,43.30
2022-11-14T04:41:26.218Z,43.40
2022-11-14T04:43:54.019Z,45.40
2022-11-14T04:46:22.322Z,43.40
2022-11-14T04:48:50.104Z,43.30
2022-11-14T04:51:18.059Z,44.30
2022-11-14T04:53:45.892Z,42.20
2022-11-14T04:56:13.714Z,43.40
2022-11-14T04:58:41.500Z,44.80
2022-11-14T05:01:11.038Z,44.80
2022-11-14T05:03:38.930Z,43.10
2022-11-14T05:06:07.378Z,43.30
2022-11-14T05:08:35.409Z,43.20
2022-11-14T05:11:03.200Z,42.60
2022-11-14T05:13:31.163Z,39.80
2022-11-14T05:16:00.370Z,41.40
2022-11-14T05:18:28.683Z,42.50
2022-11-14T05:20:59.915Z,44.60
2022-11-14T05:23:28.338Z,42.60
2022-11-14T05:26:06.053Z,43.40
2022-11-14T05:28:34.510Z,41.00
2022-11-14T05:31:09.378Z,42.70
2022-11-14T05:33:37.331Z,41.60
2022-11-14T05:36:08.537Z,41.10
2022-11-14T05:38:37.149Z,41.30
2022-11-14T05:41:14.548Z,42.60
2022-11-14T05:43:43.229Z,43.90
2022-11-14T05:46:13.971Z,41.60
2022-11-14T05:48:42.178Z,43.00
2022-11-14T05:51:12.597Z,43.10
2022-11-14T05:53:41.602Z,39.20
2022-11-14T05:56:13.405Z,39.00
2022-11-14T05:58:41.502Z,40.60
2022-11-14T06:01:13.124Z,41.30
2022-11-14T06:03:44.311Z,47.20
2022-11-14T06:06:20.131Z,53.20
2022-11-14T06:08:48.751Z,42.30
2022-11-14T06:11:20.047Z,40.00
2022-11-14T06:13:48.619Z,40.90
2022-11-14T06:16:19.019Z,39.70
2022-11-14T06:18:47.723Z,39.90
2022-11-14T06:21:22.074Z,40.80
2022-11-14T06:23:50.123Z,41.30
2022-11-14T06:26:31.683Z,38.10
2022-11-14T06:29:00.678Z,39.20
2022-11-14T06:31:28.747Z,40.50
2022-11-14T06:33:57.061Z,38.10
2022-11-14T06:36:25.080Z,36.40
2022-11-14T06:38:53.000Z,39.50
2022-11-14T06:41:22.115Z,37.50
2022-11-14T06:43:53.004Z,37.20
2022-11-14T06:46:22.667Z,37.70
2022-11-14T06:48:52.509Z,39.00
2022-11-14T06:51:20.354Z,38.30
2022-11-14T06:53:48.271Z,40.60
2022-11-14T06:56:18.161Z,41.10
2022-11-14T06:58:48.628Z,36.20
2022-11-14T07:01:19.416Z,38.70
2022-11-14T07:03:47.892Z,38.20
2022-11-14T07:06:19.276Z,37.80
2022-11-14T07:08:47.331Z,40.20
2022-11-14T07:11:25.881Z,40.50
2022-11-14T07:14:01.976Z,39.90
2022-11-14T07:16:35.613Z,40.40
2022-11-14T07:19:06.222Z,37.20
2022-11-14T07:21:35.126Z,40.30
2022-11-14T07:24:03.289Z,38.30
2022-11-14T07:26:32.091Z,37.40
2022-11-14T07:29:02.448Z,37.40
2022-11-14T07:31:30.946Z,37.60
2022-11-14T07:33:58.855Z,35.70
2022-11-14T07:36:26.623Z,36.40
2022-11-14T07:38:54.656Z,41.30
2022-11-14T07:41:22.448Z,37.40
2022-11-14T07:43:50.223Z,40.40
2022-11-14T07:46:18.649Z,36.50
2022-11-14T07:48:46.471Z,37.10
2022-11-14T07:51:19.796Z,34.90
2022-11-14T07:53:48.256Z,36.80
2022-11-14T07:56:17.345Z,35.40
2022-11-14T07:58:45.947Z,34.00
2022-11-14T08:01:14.833Z,36.10
2022-11-14T08:03:45.971Z,35.70
2022-11-14T08:06:16.047Z,35.00
2022-11-14T08:08:43.959Z,36.30
2022-11-14T08:11:12.309Z,37.20
2022-11-14T08:13:40.273Z,37.10
2022-11-14T08:16:13.526Z,37.40
2022-11-14T08:18:42.067Z,37.10
2022-11-14T08:21:09.918Z,37.70
2022-11-14T08:23:38.823Z,39.50
2022-11-14T08:26:06.831Z,38.00
2022-11-14T08:28:34.857Z,38.00
2022-11-14T08:31:04.551Z,39.00
2022-11-14T08:33:32.516Z,39.70
2022-11-14T08:36:05.625Z,39.40
2022-11-14T08:38:34.796Z,39.00
2022-11-14T08:41:03.744Z,37.20
2022-11-14T08:43:32.207Z,38.50
2022-11-14T08:46:02.742Z,36.80
2022-11-14T08:48:31.796Z,39.30
2022-11-14T08:51:07.382Z,38.20
2022-11-14T08:53:35.426Z,37.70
2022-11-14T08:56:03.687Z,36.60
2022-11-14T08:58:33.012Z,38.60
2022-11-14T09:01:07.107Z,38.10
2022-11-14T09:03:35.087Z,37.90
2022-11-14T09:06:03.503Z,40.50
2022-11-14T09:08:32.062Z,39.70
2022-11-14T09:11:05.226Z,37.60
2022-11-14T09:13:34.850Z,37.50
2022-11-14T09:16:03.010Z,36.00
2022-11-14T09:18:31.720Z,37.40
2022-11-14T09:21:06.641Z,37.20
2022-11-14T09:23:35.821Z,38.10
2022-11-14T09:26:08.669Z,40.70
2022-11-14T09:28:37.569Z,41.80
2022-11-14T09:31:09.001Z,41.70
2022-11-14T09:33:36.935Z,36.40
2022-11-14T09:36:08.293Z,45.50
2022-11-14T09:38:38.751Z,40.60
2022-11-14T09:42:16.941Z,38.40
2022-11-14T09:45:02.316Z,37.50
2022-11-14T09:47:59.928Z,37.10
2022-11-14T09:50:33.513Z,37.70
2022-11-14T09:53:33.960Z,37.80
2022-11-14T09:56:01.905Z,37.90
2022-11-14T09:58:29.928Z,33.30
2022-11-14T10:01:09.638Z,34.00
2022-11-14T10:03:58.644Z,33.70
2022-11-14T10:06:33.716Z,34.50
2022-11-14T10:09:19.874Z,35.90
2022-11-14T10:11:55.617Z,34.40
2022-11-14T10:14:53.657Z,33.70
2022-11-14T10:17:51.910Z,34.70
2022-11-14T10:20:54.676Z,33.90
2022-11-14T10:23:37.272Z,38.20
2022-11-14T10:26:30.272Z,38.00
2022-11-14T10:31:54.275Z,30.40
2022-11-14T10:34:42.873Z,33.50
2022-11-14T10:37:28.965Z,33.40
2022-11-14T10:40:14.397Z,30.60
2022-11-14T10:42:47.414Z,32.70
2022-11-14T10:45:25.312Z,33.80
2022-11-14T10:48:01.546Z,33.00
2022-11-14T10:50:59.720Z,32.30
2022-11-14T10:53:53.723Z,32.80
2022-11-14T10:56:22.115Z,31.90
2022-11-14T10:58:50.442Z,33.40
2022-11-14T11:01:35.967Z,30.50
2022-11-14T11:04:30.871Z,31.80
2022-11-14T11:07:42.744Z,30.60
2022-11-14T11:10:41.954Z,33.60
2022-11-14T11:13:15.731Z,31.50
2022-11-14T11:15:58.459Z,32.30
2022-11-14T11:18:35.685Z,31.80
2022-11-14T11:21:15.293Z,30.60
2022-11-14T11:23:53.364Z,32.00
2022-11-14T11:26:28.722Z,32.80
2022-11-14T11:29:06.537Z,31.50
2022-11-14T11:31:56.025Z,30.80
2022-11-14T11:34:34.122Z,32.40
2022-11-14T11:37:16.229Z,31.30
2022-11-14T11:39:57.716Z,32.20
2022-11-14T11:42:58.793Z,31.70
2022-11-14T11:45:19.819Z,33.00
2022-11-14T11:47:58.147Z,33.70
2022-11-14T11:50:26.171Z,31.90
2022-11-14T11:53:08.214Z,32.70
2022-11-14T11:55:44.320Z,34.30
2022-11-14T11:58:46.164Z,31.60
2022-11-14T12:01:18.124Z,30.70
2022-11-14T12:03:51.908Z,30.70
2022-11-14T12:06:29.882Z,29.70
2022-11-14T12:09:42.536Z,28.40
2022-11-14T12:12:26.026Z,30.10
2022-11-14T12:15:39.193Z,30.60
2022-11-14T12:18:39.177Z,30.40
2022-11-14T12:21:25.620Z,27.90
2022-11-14T12:24:34.767Z,29.40
2022-11-14T12:27:24.695Z,27.20
2022-11-14T12:29:55.366Z,28.00
2022-11-14T12:32:53.260Z,28.30
2022-11-14T12:35:25.818Z,26.00
2022-11-14T12:40:29.797Z,25.80
2022-11-14T12:42:59.110Z,26.40
2022-11-14T12:45:42.328Z,27.20
2022-11-14T12:48:22.970Z,26.30
2022-11-14T12:50:51.296Z,26.20
2022-11-14T12:53:37.205Z,26.50
2022-11-14T12:56:15.126Z,26.20
2022-11-14T12:59:05.417Z,25.60
2022-11-14T13:01:36.093Z,24.50
2022-11-14T13:04:26.175Z,25.10
2022-11-14T13:07:34.293Z,24.90
2022-11-14T13:10:16.708Z,24.20
2022-11-14T13:13:36.009Z,23.00
2022-11-14T13:16:23.305Z,22.20
2022-11-14T13:19:30.570Z,23.00
2022-11-14T13:22:14.646Z,24.30
2022-11-14T13:25:05.473Z,24.80
2022-11-14T13:28:05.283Z,24.20
2022-11-14T13:31:07.711Z,24.20
2022-11-14T13:33:45.481Z,24.40
2022-11-14T13:36:35.089Z,24.90
2022-11-14T13:39:15.289Z,24.20
2022-11-14T13:42:32.320Z,26.70
2022-11-14T13:45:25.927Z,29.50
2022-11-14T13:48:11.130Z,26.90
2022-11-14T13:50:40.681Z,26.50
2022-11-14T13:53:16.029Z,27.70
2022-11-14T13:56:04.530Z,27.20
2022-11-14T13:59:03.380Z,27.40
2022-11-14T14:01:59.573Z,32.10
2022-11-14T14:04:45.158Z,32.10
2022-11-14T14:07:51.102Z,28.00
2022-11-14T14:11:00.917Z,29.00
2022-11-14T14:13:55.724Z,37.50
2022-11-14T14:16:52.395Z,38.60
2022-11-14T14:19:43.291Z,38.90
2022-11-14T14:22:27.541Z,35.90
2022-11-14T14:25:07.369Z,30.60
2022-11-14T14:27:56.223Z,28.00
2022-11-14T14:30:24.571Z,28.30
2022-11-14T14:33:07.944Z,30.80
2022-11-14T14:35:40.923Z,33.30
2022-11-14T14:38:21.938Z,35.00
2022-11-14T14:40:50.050Z,44.80
2022-11-14T14:43:35.421Z,36.70
2022-11-14T14:46:06.289Z,51.50
2022-11-14T14:48:36.870Z,53.00
2022-11-14T14:51:07.656Z,55.70
2022-11-14T14:53:36.950Z,62.60
2022-11-14T14:56:25.027Z,66.40
2022-11-14T14:58:53.121Z,67.40
2022-11-14T15:01:39.640Z,71.60
2022-11-14T15:04:14.143Z,66.30
2022-11-14T15:06:46.625Z,64.50
2022-11-14T15:09:29.897Z,104.50
2022-11-14T15:12:00.542Z,118.30
2022-11-14T15:14:35.963Z,139.60
2022-11-14T15:17:04.446Z,171.70
2022-11-14T15:19:45.420Z,155.10
2022-11-14T15:22:28.099Z,94.50
2022-11-14T15:25:14.842Z,68.60
2022-11-14T15:27:52.257Z,94.30
2022-11-14T15:30:31.453Z,95.30
2022-11-14T15:33:05.706Z,92.90
2022-11-14T15:35:38.238Z,97.00
2022-11-14T15:38:37.080Z,93.40
2022-11-14T15:41:24.454Z,90.50
2022-11-14T15:43:55.424Z,86.90
2022-11-14T15:46:38.012Z,86.60
2022-11-14T15:49:14.691Z,94.40
2022-11-14T15:52:03.880Z,92.20
2022-11-14T15:54:40.410Z,89.50
2022-11-14T15:57:17.417Z,94.80
2022-11-14T15:59:45.592Z,93.10
2022-11-14T16:02:45.971Z,92.70
2022-11-14T16:05:17.663Z,93.00
2022-11-14T16:07:51.167Z,104.00
2022-11-14T16:10:27.750Z,92.90
2022-11-14T16:12:56.154Z,97.60
2022-11-14T16:15:24.502Z,102.70
2022-11-14T16:17:52.374Z,94.70
2022-11-14T16:20:27.403Z,92.30
2022-11-14T16:22:56.704Z,84.20
2022-11-14T16:25:27.763Z,90.30
2022-11-14T16:27:55.859Z,91.30
2022-11-14T16:30:29.084Z,81.70
2022-11-14T16:32:57.161Z,80.70
2022-11-14T16:35:27.093Z,83.00
2022-11-14T16:37:59.493Z,78.50
2022-11-14T16:40:28.901Z,72.10
2022-11-14T16:42:59.615Z,69.80
2022-11-14T16:45:28.408Z,70.40
2022-11-14T16:47:56.467Z,61.60
2022-11-14T16:50:24.567Z,64.30
2022-11-14T16:52:59.410Z,63.30
2022-11-14T16:55:27.595Z,53.20
2022-11-14T16:57:57.448Z,55.00
2022-11-14T17:00:25.606Z,51.80
2022-11-14T17:03:00.004Z,47.90
2022-11-14T17:05:31.422Z,49.20
2022-11-14T17:07:59.608Z,46.00
2022-11-14T17:10:27.649Z,50.20
2022-11-14T17:12:55.666Z,55.00
2022-11-14T17:15:23.572Z,58.80
2022-11-14T17:17:51.674Z,54.60
2022-11-14T17:20:19.699Z,53.50
2022-11-14T17:22:47.630Z,48.80
2022-11-14T17:25:15.534Z,52.00
2022-11-14T17:27:43.327Z,55.50
2022-11-14T17:30:15.062Z,58.50
2022-11-14T17:32:42.962Z,55.10
2022-11-14T17:35:11.055Z,55.10
2022-11-14T17:37:39.379Z,54.10
2022-11-14T17:40:14.217Z,55.40
2022-11-14T17:42:43.338Z,54.20
2022-11-14T17:45:14.101Z,52.70
2022-11-14T17:47:42.286Z,52.40
2022-11-14T17:50:12.987Z,53.10
2022-11-14T17:52:43.198Z,49.90
2022-11-14T17:55:14.284Z,50.60
2022-11-14T17:57:42.333Z,56.60
2022-11-14T18:00:10.944Z,56.50
2022-11-14T18:02:38.935Z,55.30
2022-11-14T18:05:07.543Z,59.20
2022-11-14T18:07:35.595Z,58.00
2022-11-14T18:10:03.923Z,55.40
2022-11-14T18:12:34.063Z,50.10
2022-11-14T18:15:02.246Z,49.50
2022-11-14T18:17:34.360Z,51.50
2022-11-14T18:20:04.587Z,54.40
2022-11-14T18:22:32.423Z,60.20
2022-11-14T18:25:07.510Z,58.80
2022-11-14T18:27:36.582Z,65.90
2022-11-14T18:30:20.150Z,73.00
2022-11-14T18:32:56.376Z,64.00
2022-11-14T18:35:25.984Z,65.40
2022-11-14T18:37:54.200Z,64.70
2022-11-14T18:40:22.425Z,63.40
2022-11-14T18:42:50.508Z,63.90
2022-11-14T18:45:18.678Z,72.90
2022-11-14T18:47:46.775Z,73.80
2022-11-14T18:50:15.030Z,87.10
2022-11-14T18:52:43.063Z,87.20
2022-11-14T18:55:11.229Z,91.00
2022-11-14T18:57:40.940Z,99.20
2022-11-14T19:00:09.960Z,93.10
2022-11-14T19:02:40.412Z,89.10
2022-11-14T19:05:08.809Z,77.90
2022-11-14T19:07:38.787Z,78.00
2022-11-14T19:10:07.680Z,82.00
2022-11-14T19:12:35.785Z,83.30
2022-11-14T19:15:05.628Z,76.10
2022-11-14T19:17:33.880Z,74.10
2022-11-14T19:20:01.913Z,72.20
2022-11-14T19:22:30.001Z,72.90
2022-11-14T19:24:59.173Z,76.00
2022-11-14T19:27:27.641Z,77.90
2022-11-14T19:29:55.965Z,79.80
2022-11-14T19:32:26.883Z,73.80
2022-11-14T19:34:55.061Z,78.10
2022-11-14T19:37:23.193Z,69.70
2022-11-14T19:39:55.479Z,65.50
2022-11-14T19:42:23.643Z,62.70
2022-11-14T19:44:52.677Z,64.60
2022-11-14T19:47:20.932Z,59.80
2022-11-14T19:49:49.756Z,58.00
2022-11-14T19:52:18.147Z,58.10
2022-11-14T19:54:49.265Z,62.10
2022-11-14T19:57:17.195Z,60.30
2022-11-14T19:59:45.027Z,64.10
2022-11-14T20:02:14.086Z,58.80
2022-11-14T20:04:43.655Z,50.90
2022-11-14T20:07:11.632Z,51.80
2022-11-14T20:09:42.181Z,51.20
2022-11-14T20:12:10.075Z,48.30
2022-11-14T20:14:41.318Z,47.10
2022-11-14T20:17:09.438Z,51.70
2022-11-14T20:19:41.826Z,52.80
2022-11-14T20:22:12.599Z,54.20
2022-11-14T20:24:40.687Z,52.80
2022-11-14T20:27:13.943Z,51.60
2022-11-14T20:29:41.985Z,53.90
2022-11-14T20:32:15.731Z,61.90
2022-11-14T20:34:44.071Z,63.50
2022-11-14T20:37:12.245Z,65.80
2022-11-14T20:39:40.861Z,63.80
2022-11-14T20:42:08.851Z,60.70
2022-11-14T20:44:36.710Z,64.20
2022-11-14T20:47:09.740Z,65.60
2022-11-14T20:49:38.913Z,61.60
2022-11-14T20:52:07.000Z,62.50
2022-11-14T20:54:34.846Z,65.40
2022-11-14T20:57:02.835Z,69.20
2022-11-14T20:59:30.694Z,79.50
2022-11-14T21:01:58.705Z,72.20
2022-11-14T21:04:26.537Z,72.90
2022-11-14T21:06:54.380Z,66.90
2022-11-14T21:09:22.191Z,60.80
2022-11-14T21:11:49.967Z,59.90
2022-11-14T21:14:17.855Z,57.90
2022-11-14T21:16:45.768Z,58.10
2022-11-14T21:19:13.787Z,63.30
2022-11-14T21:21:41.571Z,63.70
2022-11-14T21:24:09.533Z,59.60
2022-11-14T21:26:39.813Z,57.70
2022-11-14T21:29:14.504Z,59.00
2022-11-14T21:31:45.738Z,60.10
2022-11-14T21:34:18.147Z,61.30
2022-11-14T21:36:48.453Z,63.70
2022-11-14T21:39:19.864Z,62.80
2022-11-14T21:41:53.690Z,60.50
2022-11-14T21:44:22.318Z,61.20
2022-11-14T21:46:53.227Z,66.40
2022-11-14T21:49:21.752Z,62.80
2022-11-14T21:51:49.911Z,63.20
2022-11-14T21:54:17.899Z,65.10
2022-11-14T21:56:49.092Z,65.80
2022-11-14T21:59:18.963Z,62.30
2022-11-14T22:02:12.635Z,64.60
2022-11-14T22:04:43.275Z,61.80
2022-11-14T22:07:13.647Z,63.80
2022-11-14T22:09:45.367Z,67.00
2022-11-14T22:12:13.715Z,63.10
2022-11-14T22:14:44.094Z,56.60
2022-11-14T22:17:11.944Z,62.10
2022-11-14T22:19:39.789Z,57.20
2022-11-14T22:22:07.915Z,57.40
2022-11-14T22:24:35.790Z,57.30
2022-11-14T22:27:03.851Z,56.90
2022-11-14T22:29:31.637Z,55.00
2022-11-14T22:31:59.456Z,55.30
2022-11-14T22:34:27.463Z,59.00
2022-11-14T22:36:55.231Z,54.10
2022-11-14T22:39:23.025Z,59.00
2022-11-14T22:41:50.842Z,58.20
2022-11-14T22:44:18.734Z,55.50
2022-11-14T22:46:46.961Z,57.90
2022-11-14T22:49:19.737Z,58.60
2022-11-14T22:51:48.732Z,58.70
2022-11-14T22:54:16.669Z,61.90
2022-11-14T22:56:44.518Z,57.20
2022-11-14T22:59:12.487Z,55.20
2022-11-14T23:01:40.306Z,56.70
2022-11-14T23:04:09.281Z,58.50
2022-11-14T23:06:37.132Z,58.30
2022-11-14T23:09:05.223Z,57.80
2022-11-14T23:11:33.657Z,51.10
2022-11-14T23:14:01.542Z,50.80
2022-11-14T23:16:32.315Z,52.60
2022-11-14T23:19:02.736Z,51.60
2022-11-14T23:21:35.435Z,52.00
2022-11-14T23:26:36.517Z,49.30
2022-11-14T23:29:04.308Z,51.10
2022-11-14T23:31:32.136Z,49.60
2022-11-14T23:33:59.989Z,45.40
2022-11-14T23:36:27.932Z,51.40
2022-11-14T23:38:56.005Z,50.10
2022-11-14T23:41:27.564Z,49.70
2022-11-14T23:43:55.312Z,46.60
2022-11-14T23:46:23.111Z,44.60
2022-11-14T23:48:53.319Z,43.80
2022-11-14T23:51:21.226Z,43.40
2022-11-14T23:53:49.147Z,44.40
2022-11-14T23:56:17.106Z,42.40
2022-11-14T23:58:45.086Z,41.50
